sensor_id;sensor_type;location;lat;lon;timestamp;pressure;altitude;pressure_sealevel;temperature;humidity
74905;BME280;63465;50.862;6.220;2023-05-02T00:00:07;100258.75;;;10.53;100.00
74905;BME280;63465;50.862;6.220;2023-05-02T00:02:33;100259.31;;;10.62;100.00
74905;BME280;63465;50.862;6.220;2023-05-02T00:04:58;100268.00;;;10.65;100.00
74905;BME280;63465;50.862;6.220;2023-05-02T00:07:23;100261.63;;;10.47;100.00
74905;BME280;63465;50.862;6.220;2023-05-02T00:09:49;100256.47;;;10.66;100.00
74905;BME280;63465;50.862;6.220;2023-05-02T00:12:15;100252.31;;;10.59;100.00
74905;BME280;63465;50.862;6.220;2023-05-02T00:14:40;100254.44;;;10.51;100.00
74905;BME280;63465;50.862;6.220;2023-05-02T00:17:05;100261.09;;;10.61;100.00
74905;BME280;63465;50.862;6.220;2023-05-02T00:19:30;100270.34;;;10.51;100.00
74905;BME280;63465;50.862;6.220;2023-05-02T00:21:56;100265.03;;;10.51;100.00
74905;BME280;63465;50.862;6.220;2023-05-02T00:24:21;100269.88;;;10.63;100.00
74905;BME280;63465;50.862;6.220;2023-05-02T00:26:46;100266.41;;;10.61;100.00
74905;BME280;63465;50.862;6.220;2023-05-02T00:29:11;100267.03;;;10.68;100.00
74905;BME280;63465;50.862;6.220;2023-05-02T00:31:39;100266.22;;;10.66;100.00
74905;BME280;63465;50.862;6.220;2023-05-02T00:34:06;100274.91;;;10.47;100.00
74905;BME280;63465;50.862;6.220;2023-05-02T00:36:31;100277.13;;;10.36;100.00
74905;BME280;63465;50.862;6.220;2023-05-02T00:38:57;100271.38;;;10.47;100.00
74905;BME280;63465;50.862;6.220;2023-05-02T00:41:22;100278.69;;;10.42;100.00
74905;BME280;63465;50.862;6.220;2023-05-02T00:43:47;100276.09;;;10.40;100.00
74905;BME280;63465;50.862;6.220;2023-05-02T00:46:13;100287.84;;;10.33;100.00
74905;BME280;63465;50.862;6.220;2023-05-02T00:48:39;100285.94;;;10.37;100.00
74905;BME280;63465;50.862;6.220;2023-05-02T00:51:05;100288.69;;;10.33;100.00
74905;BME280;63465;50.862;6.220;2023-05-02T00:53:30;100293.41;;;10.25;100.00
74905;BME280;63465;50.862;6.220;2023-05-02T00:56:00;100294.00;;;10.33;100.00
74905;BME280;63465;50.862;6.220;2023-05-02T00:58:26;100297.69;;;10.29;100.00
74905;BME280;63465;50.862;6.220;2023-05-02T01:08:46;100307.03;;;10.40;100.00
74905;BME280;63465;50.862;6.220;2023-05-02T01:11:27;100315.69;;;10.45;100.00
74905;BME280;63465;50.862;6.220;2023-05-02T01:14:00;100315.94;;;10.39;100.00
74905;BME280;63465;50.862;6.220;2023-05-02T01:16:29;100308.16;;;10.34;100.00
74905;BME280;63465;50.862;6.220;2023-05-02T01:18:56;100315.22;;;10.33;100.00
74905;BME280;63465;50.862;6.220;2023-05-02T01:21:24;100316.63;;;10.44;100.00
74905;BME280;63465;50.862;6.220;2023-05-02T01:26:35;100311.59;;;10.36;100.00
74905;BME280;63465;50.862;6.220;2023-05-02T01:29:06;100316.91;;;10.36;100.00
74905;BME280;63465;50.862;6.220;2023-05-02T01:31:38;100321.56;;;10.29;100.00
74905;BME280;63465;50.862;6.220;2023-05-02T01:34:07;100324.34;;;10.26;100.00
74905;BME280;63465;50.862;6.220;2023-05-02T01:36:35;100326.31;;;10.45;100.00
74905;BME280;63465;50.862;6.220;2023-05-02T01:39:02;100331.34;;;10.27;100.00
74905;BME280;63465;50.862;6.220;2023-05-02T01:41:31;100329.31;;;10.35;100.00
74905;BME280;63465;50.862;6.220;2023-05-02T01:43:58;100333.16;;;10.27;100.00
74905;BME280;63465;50.862;6.220;2023-05-02T01:46:26;100341.78;;;10.32;100.00
74905;BME280;63465;50.862;6.220;2023-05-02T01:48:53;100340.59;;;10.17;100.00
74905;BME280;63465;50.862;6.220;2023-05-02T01:51:25;100338.91;;;10.14;100.00
74905;BME280;63465;50.862;6.220;2023-05-02T01:53:53;100337.94;;;10.17;100.00
74905;BME280;63465;50.862;6.220;2023-05-02T01:56:20;100333.38;;;10.21;100.00
74905;BME280;63465;50.862;6.220;2023-05-02T01:58:46;100348.16;;;10.28;100.00
74905;BME280;63465;50.862;6.220;2023-05-02T02:01:13;100347.38;;;10.24;100.00
74905;BME280;63465;50.862;6.220;2023-05-02T02:03:40;100340.59;;;10.17;100.00
74905;BME280;63465;50.862;6.220;2023-05-02T02:06:07;100341.09;;;10.27;100.00
74905;BME280;63465;50.862;6.220;2023-05-02T02:08:34;100353.13;;;10.37;100.00
74905;BME280;63465;50.862;6.220;2023-05-02T02:11:03;100350.31;;;10.42;100.00
74905;BME280;63465;50.862;6.220;2023-05-02T02:13:43;100339.69;;;10.42;100.00
74905;BME280;63465;50.862;6.220;2023-05-02T02:16:11;100346.88;;;10.38;100.00
74905;BME280;63465;50.862;6.220;2023-05-02T02:18:38;100345.19;;;10.37;100.00
74905;BME280;63465;50.862;6.220;2023-05-02T02:21:08;100346.47;;;10.49;100.00
74905;BME280;63465;50.862;6.220;2023-05-02T02:23:36;100350.63;;;10.32;100.00
74905;BME280;63465;50.862;6.220;2023-05-02T02:26:03;100350.84;;;10.26;100.00
74905;BME280;63465;50.862;6.220;2023-05-02T02:28:29;100358.28;;;10.16;100.00
74905;BME280;63465;50.862;6.220;2023-05-02T02:30:55;100355.78;;;10.37;100.00
74905;BME280;63465;50.862;6.220;2023-05-02T02:33:28;100356.03;;;10.29;100.00
74905;BME280;63465;50.862;6.220;2023-05-02T02:36:11;100359.91;;;10.44;100.00
74905;BME280;63465;50.862;6.220;2023-05-02T02:38:45;100361.94;;;10.38;100.00
74905;BME280;63465;50.862;6.220;2023-05-02T02:41:15;100359.41;;;10.34;100.00
74905;BME280;63465;50.862;6.220;2023-05-02T02:43:59;100357.91;;;10.51;100.00
74905;BME280;63465;50.862;6.220;2023-05-02T02:49:43;100355.81;;;10.59;100.00
74905;BME280;63465;50.862;6.220;2023-05-02T02:52:26;100356.78;;;10.58;100.00
74905;BME280;63465;50.862;6.220;2023-05-02T02:54:58;100357.84;;;10.52;100.00
74905;BME280;63465;50.862;6.220;2023-05-02T02:57:42;100364.56;;;10.63;100.00
74905;BME280;63465;50.862;6.220;2023-05-02T03:00:21;100368.34;;;10.56;100.00
74905;BME280;63465;50.862;6.220;2023-05-02T03:02:49;100365.09;;;10.47;100.00
74905;BME280;63465;50.862;6.220;2023-05-02T03:05:18;100362.81;;;10.62;100.00
74905;BME280;63465;50.862;6.220;2023-05-02T03:07:43;100364.84;;;10.55;100.00
74905;BME280;63465;50.862;6.220;2023-05-02T03:10:09;100365.66;;;10.57;100.00
74905;BME280;63465;50.862;6.220;2023-05-02T03:12:35;100370.22;;;10.53;100.00
74905;BME280;63465;50.862;6.220;2023-05-02T03:17:48;100381.44;;;10.60;100.00
74905;BME280;63465;50.862;6.220;2023-05-02T03:20:13;100378.56;;;10.66;100.00
74905;BME280;63465;50.862;6.220;2023-05-02T03:22:38;100382.00;;;10.68;100.00
74905;BME280;63465;50.862;6.220;2023-05-02T03:25:04;100377.72;;;10.66;100.00
74905;BME280;63465;50.862;6.220;2023-05-02T03:27:29;100384.16;;;10.59;100.00
74905;BME280;63465;50.862;6.220;2023-05-02T03:29:56;100376.94;;;10.62;100.00
74905;BME280;63465;50.862;6.220;2023-05-02T03:32:21;100380.41;;;10.64;100.00
74905;BME280;63465;50.862;6.220;2023-05-02T03:34:46;100382.19;;;10.64;100.00
74905;BME280;63465;50.862;6.220;2023-05-02T03:37:12;100390.97;;;10.66;100.00
74905;BME280;63465;50.862;6.220;2023-05-02T03:39:37;100395.50;;;10.62;100.00
74905;BME280;63465;50.862;6.220;2023-05-02T03:42:02;100391.28;;;10.58;100.00
74905;BME280;63465;50.862;6.220;2023-05-02T03:44:28;100395.28;;;10.68;100.00
74905;BME280;63465;50.862;6.220;2023-05-02T03:46:53;100395.28;;;10.68;100.00
74905;BME280;63465;50.862;6.220;2023-05-02T03:49:18;100404.97;;;10.69;100.00
74905;BME280;63465;50.862;6.220;2023-05-02T03:51:44;100397.44;;;10.59;100.00
74905;BME280;63465;50.862;6.220;2023-05-02T03:54:09;100397.59;;;10.54;100.00
74905;BME280;63465;50.862;6.220;2023-05-02T03:56:35;100404.38;;;10.63;100.00
74905;BME280;63465;50.862;6.220;2023-05-02T03:59:01;100404.19;;;10.67;100.00
74905;BME280;63465;50.862;6.220;2023-05-02T04:01:26;100408.56;;;10.68;100.00
74905;BME280;63465;50.862;6.220;2023-05-02T04:03:52;100410.47;;;10.65;100.00
74905;BME280;63465;50.862;6.220;2023-05-02T04:06:17;100416.63;;;10.65;100.00
74905;BME280;63465;50.862;6.220;2023-05-02T04:08:42;100416.50;;;10.68;100.00
74905;BME280;63465;50.862;6.220;2023-05-02T04:11:08;100419.75;;;10.77;100.00
74905;BME280;63465;50.862;6.220;2023-05-02T04:13:33;100419.75;;;10.53;100.00
74905;BME280;63465;50.862;6.220;2023-05-02T04:15:58;100422.66;;;10.70;100.00
74905;BME280;63465;50.862;6.220;2023-05-02T04:18:24;100434.31;;;10.66;100.00
74905;BME280;63465;50.862;6.220;2023-05-02T04:20:49;100432.28;;;10.49;100.00
74905;BME280;63465;50.862;6.220;2023-05-02T04:23:14;100437.34;;;10.56;100.00
74905;BME280;63465;50.862;6.220;2023-05-02T04:25:40;100439.03;;;10.58;100.00
74905;BME280;63465;50.862;6.220;2023-05-02T04:28:05;100442.44;;;10.62;100.00
74905;BME280;63465;50.862;6.220;2023-05-02T04:30:30;100447.69;;;10.63;100.00
74905;BME280;63465;50.862;6.220;2023-05-02T04:32:56;100444.13;;;10.39;100.00
74905;BME280;63465;50.862;6.220;2023-05-02T04:35:21;100455.16;;;10.52;100.00
74905;BME280;63465;50.862;6.220;2023-05-02T04:37:47;100459.78;;;10.47;100.00
74905;BME280;63465;50.862;6.220;2023-05-02T04:40:12;100453.91;;;10.39;100.00
74905;BME280;63465;50.862;6.220;2023-05-02T04:42:37;100464.56;;;10.37;100.00
74905;BME280;63465;50.862;6.220;2023-05-02T04:45:03;100463.88;;;10.30;100.00
74905;BME280;63465;50.862;6.220;2023-05-02T04:47:28;100473.41;;;10.11;100.00
74905;BME280;63465;50.862;6.220;2023-05-02T04:49:54;100476.88;;;10.13;100.00
74905;BME280;63465;50.862;6.220;2023-05-02T04:52:19;100474.06;;;10.17;100.00
74905;BME280;63465;50.862;6.220;2023-05-02T04:54:44;100481.06;;;10.20;100.00
74905;BME280;63465;50.862;6.220;2023-05-02T04:57:10;100483.69;;;10.20;100.00
74905;BME280;63465;50.862;6.220;2023-05-02T04:59:36;100488.34;;;10.13;100.00
74905;BME280;63465;50.862;6.220;2023-05-02T05:02:02;100484.22;;;10.05;100.00
74905;BME280;63465;50.862;6.220;2023-05-02T05:04:27;100494.63;;;10.11;100.00
74905;BME280;63465;50.862;6.220;2023-05-02T05:06:53;100498.41;;;10.04;100.00
74905;BME280;63465;50.862;6.220;2023-05-02T05:09:18;100500.19;;;10.03;100.00
74905;BME280;63465;50.862;6.220;2023-05-02T05:11:44;100502.84;;;10.03;100.00
74905;BME280;63465;50.862;6.220;2023-05-02T05:14:10;100504.91;;;10.20;100.00
74905;BME280;63465;50.862;6.220;2023-05-02T05:16:36;100503.75;;;10.02;100.00
74905;BME280;63465;50.862;6.220;2023-05-02T05:19:01;100511.50;;;10.08;100.00
74905;BME280;63465;50.862;6.220;2023-05-02T05:21:28;100516.06;;;10.05;100.00
74905;BME280;63465;50.862;6.220;2023-05-02T05:23:53;100522.31;;;10.02;100.00
74905;BME280;63465;50.862;6.220;2023-05-02T05:26:18;100527.56;;;10.04;100.00
74905;BME280;63465;50.862;6.220;2023-05-02T05:28:45;100528.78;;;9.93;100.00
74905;BME280;63465;50.862;6.220;2023-05-02T05:31:11;100527.03;;;9.94;100.00
74905;BME280;63465;50.862;6.220;2023-05-02T05:33:37;100534.91;;;9.95;100.00
74905;BME280;63465;50.862;6.220;2023-05-02T05:36:05;100539.69;;;9.84;100.00
74905;BME280;63465;50.862;6.220;2023-05-02T05:38:30;100535.94;;;9.91;100.00
74905;BME280;63465;50.862;6.220;2023-05-02T05:40:56;100540.44;;;9.89;100.00
74905;BME280;63465;50.862;6.220;2023-05-02T05:43:21;100550.88;;;9.94;100.00
74905;BME280;63465;50.862;6.220;2023-05-02T05:45:46;100555.25;;;9.95;100.00
74905;BME280;63465;50.862;6.220;2023-05-02T05:48:11;100562.69;;;9.84;100.00
74905;BME280;63465;50.862;6.220;2023-05-02T05:50:37;100565.09;;;9.91;100.00
74905;BME280;63465;50.862;6.220;2023-05-02T05:53:02;100564.34;;;9.88;100.00
74905;BME280;63465;50.862;6.220;2023-05-02T05:55:27;100565.66;;;10.01;100.00
74905;BME280;63465;50.862;6.220;2023-05-02T05:57:53;100568.44;;;9.96;100.00
74905;BME280;63465;50.862;6.220;2023-05-02T06:00:18;100573.81;;;9.95;100.00
74905;BME280;63465;50.862;6.220;2023-05-02T06:02:44;100578.34;;;9.91;100.00
74905;BME280;63465;50.862;6.220;2023-05-02T06:05:09;100570.19;;;9.97;100.00
74905;BME280;63465;50.862;6.220;2023-05-02T06:07:34;100574.59;;;9.98;100.00
74905;BME280;63465;50.862;6.220;2023-05-02T06:09:59;100573.41;;;10.07;100.00
74905;BME280;63465;50.862;6.220;2023-05-02T06:12:25;100579.38;;;10.14;100.00
74905;BME280;63465;50.862;6.220;2023-05-02T06:14:51;100581.25;;;10.10;100.00
74905;BME280;63465;50.862;6.220;2023-05-02T06:17:16;100584.09;;;10.04;100.00
74905;BME280;63465;50.862;6.220;2023-05-02T06:19:42;100581.00;;;10.18;100.00
74905;BME280;63465;50.862;6.220;2023-05-02T06:22:07;100589.84;;;10.18;100.00
74905;BME280;63465;50.862;6.220;2023-05-02T06:24:32;100585.25;;;10.24;100.00
74905;BME280;63465;50.862;6.220;2023-05-02T06:26:58;100589.53;;;10.28;100.00
74905;BME280;63465;50.862;6.220;2023-05-02T06:29:24;100600.31;;;10.23;100.00
74905;BME280;63465;50.862;6.220;2023-05-02T06:31:49;100600.59;;;10.14;100.00
74905;BME280;63465;50.862;6.220;2023-05-02T06:34:15;100604.06;;;10.16;100.00
74905;BME280;63465;50.862;6.220;2023-05-02T06:36:40;100606.22;;;10.05;100.00
74905;BME280;63465;50.862;6.220;2023-05-02T06:39:05;100617.22;;;10.19;100.00
74905;BME280;63465;50.862;6.220;2023-05-02T06:41:31;100611.41;;;10.08;100.00
74905;BME280;63465;50.862;6.220;2023-05-02T06:43:56;100613.13;;;10.09;100.00
74905;BME280;63465;50.862;6.220;2023-05-02T06:46:21;100615.72;;;10.10;100.00
74905;BME280;63465;50.862;6.220;2023-05-02T06:48:47;100634.28;;;10.10;100.00
74905;BME280;63465;50.862;6.220;2023-05-02T06:51:13;100631.75;;;10.07;100.00
74905;BME280;63465;50.862;6.220;2023-05-02T06:53:38;100634.63;;;9.99;100.00
74905;BME280;63465;50.862;6.220;2023-05-02T06:56:04;100634.41;;;10.07;100.00
74905;BME280;63465;50.862;6.220;2023-05-02T06:58:30;100642.53;;;10.01;100.00
74905;BME280;63465;50.862;6.220;2023-05-02T07:00:56;100641.84;;;10.23;100.00
74905;BME280;63465;50.862;6.220;2023-05-02T07:03:21;100644.81;;;10.13;100.00
74905;BME280;63465;50.862;6.220;2023-05-02T07:05:46;100657.78;;;10.23;100.00
74905;BME280;63465;50.862;6.220;2023-05-02T07:08:11;100650.50;;;10.29;100.00
74905;BME280;63465;50.862;6.220;2023-05-02T07:10:37;100655.75;;;10.31;100.00
74905;BME280;63465;50.862;6.220;2023-05-02T07:13:02;100658.50;;;10.28;100.00
74905;BME280;63465;50.862;6.220;2023-05-02T07:15:28;100658.75;;;10.20;100.00
74905;BME280;63465;50.862;6.220;2023-05-02T07:17:53;100654.50;;;10.14;100.00
74905;BME280;63465;50.862;6.220;2023-05-02T07:20:18;100663.00;;;9.97;100.00
74905;BME280;63465;50.862;6.220;2023-05-02T07:22:44;100673.78;;;9.91;100.00
74905;BME280;63465;50.862;6.220;2023-05-02T07:25:09;100678.81;;;10.00;100.00
74905;BME280;63465;50.862;6.220;2023-05-02T07:27:35;100676.16;;;10.00;100.00
74905;BME280;63465;50.862;6.220;2023-05-02T07:30:00;100674.78;;;9.87;100.00
74905;BME280;63465;50.862;6.220;2023-05-02T07:32:26;100683.66;;;9.86;100.00
74905;BME280;63465;50.862;6.220;2023-05-02T07:34:51;100688.78;;;9.92;100.00
74905;BME280;63465;50.862;6.220;2023-05-02T07:37:21;100686.91;;;10.24;100.00
74905;BME280;63465;50.862;6.220;2023-05-02T07:39:46;100687.47;;;10.35;100.00
74905;BME280;63465;50.862;6.220;2023-05-02T07:42:11;100690.22;;;10.59;100.00
74905;BME280;63465;50.862;6.220;2023-05-02T07:44:37;100692.78;;;10.62;100.00
74905;BME280;63465;50.862;6.220;2023-05-02T07:47:02;100686.81;;;10.56;100.00
74905;BME280;63465;50.862;6.220;2023-05-02T07:49:27;100696.38;;;10.61;100.00
74905;BME280;63465;50.862;6.220;2023-05-02T07:51:53;100692.19;;;10.54;100.00
74905;BME280;63465;50.862;6.220;2023-05-02T07:54:19;100698.94;;;10.64;100.00
74905;BME280;63465;50.862;6.220;2023-05-02T07:56:45;100701.53;;;10.66;100.00
74905;BME280;63465;50.862;6.220;2023-05-02T07:59:11;100707.66;;;10.40;100.00
74905;BME280;63465;50.862;6.220;2023-05-02T08:01:37;100703.19;;;10.42;100.00
74905;BME280;63465;50.862;6.220;2023-05-02T08:04:02;100712.81;;;10.44;100.00
74905;BME280;63465;50.862;6.220;2023-05-02T08:06:28;100714.06;;;10.61;100.00
74905;BME280;63465;50.862;6.220;2023-05-02T08:08:55;100721.94;;;10.64;100.00
74905;BME280;63465;50.862;6.220;2023-05-02T08:11:20;100722.31;;;10.80;100.00
74905;BME280;63465;50.862;6.220;2023-05-02T08:13:46;100715.84;;;10.87;100.00
74905;BME280;63465;50.862;6.220;2023-05-02T08:16:12;100722.25;;;11.33;100.00
74905;BME280;63465;50.862;6.220;2023-05-02T08:18:37;100729.50;;;11.28;100.00
74905;BME280;63465;50.862;6.220;2023-05-02T08:21:03;100737.19;;;11.11;99.39
74905;BME280;63465;50.862;6.220;2023-05-02T08:23:28;100734.69;;;10.79;99.71
74905;BME280;63465;50.862;6.220;2023-05-02T08:25:53;100734.53;;;10.84;98.51
74905;BME280;63465;50.862;6.220;2023-05-02T08:28:19;100728.00;;;11.21;97.00
74905;BME280;63465;50.862;6.220;2023-05-02T08:30:44;100734.91;;;11.25;97.11
74905;BME280;63465;50.862;6.220;2023-05-02T08:33:09;100737.97;;;11.39;97.00
74905;BME280;63465;50.862;6.220;2023-05-02T08:35:35;100732.66;;;11.39;96.84
74905;BME280;63465;50.862;6.220;2023-05-02T08:38:00;100733.22;;;11.48;95.68
74905;BME280;63465;50.862;6.220;2023-05-02T08:40:26;100737.88;;;11.16;95.68
74905;BME280;63465;50.862;6.220;2023-05-02T08:42:51;100738.50;;;11.49;94.43
74905;BME280;63465;50.862;6.220;2023-05-02T08:45:18;100740.56;;;11.90;95.23
74905;BME280;63465;50.862;6.220;2023-05-02T08:47:45;100740.13;;;11.53;91.91
74905;BME280;63465;50.862;6.220;2023-05-02T08:50:11;100750.31;;;11.89;93.14
74905;BME280;63465;50.862;6.220;2023-05-02T08:52:37;100756.94;;;11.77;92.74
74905;BME280;63465;50.862;6.220;2023-05-02T08:55:04;100756.47;;;11.66;93.21
74905;BME280;63465;50.862;6.220;2023-05-02T08:57:30;100756.03;;;11.78;91.56
74905;BME280;63465;50.862;6.220;2023-05-02T08:59:56;100760.06;;;11.65;91.65
74905;BME280;63465;50.862;6.220;2023-05-02T09:02:50;100754.50;;;11.71;89.31
74905;BME280;63465;50.862;6.220;2023-05-02T09:05:22;100764.91;;;11.77;89.48
74905;BME280;63465;50.862;6.220;2023-05-02T09:07:50;100769.59;;;11.47;90.79
74905;BME280;63465;50.862;6.220;2023-05-02T09:10:15;100777.44;;;11.50;90.34
74905;BME280;63465;50.862;6.220;2023-05-02T09:12:41;100782.72;;;11.52;91.17
74905;BME280;63465;50.862;6.220;2023-05-02T09:15:12;100775.66;;;11.74;90.67
74905;BME280;63465;50.862;6.220;2023-05-02T09:17:47;100789.78;;;12.02;86.40
74905;BME280;63465;50.862;6.220;2023-05-02T09:20:14;100793.31;;;12.26;85.48
74905;BME280;63465;50.862;6.220;2023-05-02T09:22:50;100789.69;;;11.80;86.38
74905;BME280;63465;50.862;6.220;2023-05-02T09:25:16;100788.53;;;11.87;87.35
74905;BME280;63465;50.862;6.220;2023-05-02T09:27:55;100789.91;;;11.99;86.14
74905;BME280;63465;50.862;6.220;2023-05-02T09:30:25;100790.59;;;12.27;85.41
74905;BME280;63465;50.862;6.220;2023-05-02T09:32:51;100800.91;;;12.13;84.91
74905;BME280;63465;50.862;6.220;2023-05-02T09:35:18;100792.38;;;12.27;83.15
74905;BME280;63465;50.862;6.220;2023-05-02T09:37:55;100799.78;;;11.95;84.19
74905;BME280;63465;50.862;6.220;2023-05-02T09:40:20;100796.50;;;12.12;83.72
74905;BME280;63465;50.862;6.220;2023-05-02T09:42:47;100807.59;;;12.00;83.28
74905;BME280;63465;50.862;6.220;2023-05-02T09:45:20;100803.84;;;12.05;83.20
74905;BME280;63465;50.862;6.220;2023-05-02T09:47:46;100816.22;;;12.30;81.85
74905;BME280;63465;50.862;6.220;2023-05-02T09:50:34;100817.59;;;12.40;82.12
74905;BME280;63465;50.862;6.220;2023-05-02T09:53:06;100815.69;;;12.20;81.69
74905;BME280;63465;50.862;6.220;2023-05-02T09:55:32;100813.44;;;12.79;81.86
74905;BME280;63465;50.862;6.220;2023-05-02T09:57:58;100819.75;;;12.54;77.74
74905;BME280;63465;50.862;6.220;2023-05-02T10:00:43;100825.13;;;12.53;81.23
74905;BME280;63465;50.862;6.220;2023-05-02T10:03:09;100819.38;;;12.40;79.74
74905;BME280;63465;50.862;6.220;2023-05-02T10:05:36;100824.94;;;12.34;80.30
74905;BME280;63465;50.862;6.220;2023-05-02T10:08:07;100828.03;;;12.23;81.58
74905;BME280;63465;50.862;6.220;2023-05-02T10:10:36;100829.88;;;12.21;80.99
74905;BME280;63465;50.862;6.220;2023-05-02T10:13:03;100832.31;;;12.27;82.87
74905;BME280;63465;50.862;6.220;2023-05-02T10:15:30;100835.72;;;12.07;81.72
74905;BME280;63465;50.862;6.220;2023-05-02T10:17:57;100840.78;;;11.88;83.10
74905;BME280;63465;50.862;6.220;2023-05-02T10:20:34;100850.38;;;11.93;86.71
74905;BME280;63465;50.862;6.220;2023-05-02T10:23:01;100838.97;;;11.39;90.09
74905;BME280;63465;50.862;6.220;2023-05-02T10:25:27;100857.03;;;11.55;91.16
74905;BME280;63465;50.862;6.220;2023-05-02T10:27:59;100852.19;;;11.66;91.03
74905;BME280;63465;50.862;6.220;2023-05-02T10:30:25;100845.91;;;11.17;90.28
74905;BME280;63465;50.862;6.220;2023-05-02T10:32:51;100854.25;;;11.58;88.81
74905;BME280;63465;50.862;6.220;2023-05-02T10:35:20;100852.72;;;11.76;88.48
74905;BME280;63465;50.862;6.220;2023-05-02T10:37:46;100851.28;;;11.67;88.32
74905;BME280;63465;50.862;6.220;2023-05-02T10:40:12;100852.59;;;11.29;88.50
74905;BME280;63465;50.862;6.220;2023-05-02T10:42:41;100851.50;;;11.34;88.88
74905;BME280;63465;50.862;6.220;2023-05-02T10:45:12;100846.72;;;11.19;89.59
74905;BME280;63465;50.862;6.220;2023-05-02T10:47:37;100852.09;;;11.69;88.64
74905;BME280;63465;50.862;6.220;2023-05-02T10:50:03;100846.78;;;11.69;88.02
74905;BME280;63465;50.862;6.220;2023-05-02T10:52:32;100853.06;;;11.92;86.93
74905;BME280;63465;50.862;6.220;2023-05-02T11:00:21;100838.16;;;14.28;78.56
74905;BME280;63465;50.862;6.220;2023-05-02T11:02:47;100835.28;;;13.93;78.14
74905;BME280;63465;50.862;6.220;2023-05-02T11:05:12;100845.19;;;14.10;78.12
74905;BME280;63465;50.862;6.220;2023-05-02T11:07:38;100845.84;;;13.33;80.82
74905;BME280;63465;50.862;6.220;2023-05-02T11:12:51;100839.81;;;12.85;83.07
74905;BME280;63465;50.862;6.220;2023-05-02T11:20:28;100852.19;;;12.40;81.61
74905;BME280;63465;50.862;6.220;2023-05-02T11:22:56;100839.97;;;12.58;82.79
74905;BME280;63465;50.862;6.220;2023-05-02T11:25:28;100845.72;;;12.47;83.23
74905;BME280;63465;50.862;6.220;2023-05-02T11:27:54;100841.78;;;13.02;82.36
74905;BME280;63465;50.862;6.220;2023-05-02T11:30:43;100839.31;;;12.97;80.39
74905;BME280;63465;50.862;6.220;2023-05-02T11:33:12;100839.91;;;12.60;81.84
74905;BME280;63465;50.862;6.220;2023-05-02T11:35:41;100841.63;;;13.90;75.49
74905;BME280;63465;50.862;6.220;2023-05-02T11:38:12;100843.63;;;14.06;74.33
74905;BME280;63465;50.862;6.220;2023-05-02T11:40:37;100843.34;;;13.50;78.63
74905;BME280;63465;50.862;6.220;2023-05-02T11:43:17;100848.34;;;13.15;80.49
74905;BME280;63465;50.862;6.220;2023-05-02T11:45:43;100850.47;;;12.39;80.01
74905;BME280;63465;50.862;6.220;2023-05-02T11:48:11;100853.22;;;12.12;80.20
74905;BME280;63465;50.862;6.220;2023-05-02T11:50:48;100854.41;;;12.53;81.51
74905;BME280;63465;50.862;6.220;2023-05-02T11:53:16;100864.81;;;12.59;81.10
74905;BME280;63465;50.862;6.220;2023-05-02T11:55:53;100854.75;;;13.11;80.61
74905;BME280;63465;50.862;6.220;2023-05-02T11:58:20;100851.56;;;13.66;77.63
74905;BME280;63465;50.862;6.220;2023-05-02T12:00:46;100843.53;;;12.81;78.18
74905;BME280;63465;50.862;6.220;2023-05-02T12:03:31;100853.63;;;12.95;78.12
74905;BME280;63465;50.862;6.220;2023-05-02T12:06:07;100852.47;;;13.02;76.24
74905;BME280;63465;50.862;6.220;2023-05-02T12:08:36;100852.56;;;13.64;76.47
74905;BME280;63465;50.862;6.220;2023-05-02T12:11:01;100856.16;;;13.42;73.30
74905;BME280;63465;50.862;6.220;2023-05-02T12:13:28;100859.13;;;13.12;74.33
74905;BME280;63465;50.862;6.220;2023-05-02T12:15:53;100855.66;;;13.10;75.92
74905;BME280;63465;50.862;6.220;2023-05-02T12:18:20;100864.91;;;13.66;75.96
74905;BME280;63465;50.862;6.220;2023-05-02T12:20:54;100871.56;;;13.35;74.37
74905;BME280;63465;50.862;6.220;2023-05-02T12:23:22;100874.81;;;13.63;74.11
74905;BME280;63465;50.862;6.220;2023-05-02T12:25:48;100871.25;;;13.64;74.68
74905;BME280;63465;50.862;6.220;2023-05-02T12:28:17;100880.69;;;13.28;74.88
74905;BME280;63465;50.862;6.220;2023-05-02T12:30:45;100881.44;;;13.32;74.91
74905;BME280;63465;50.862;6.220;2023-05-02T12:33:10;100880.56;;;13.09;76.82
74905;BME280;63465;50.862;6.220;2023-05-02T12:35:36;100886.84;;;13.08;75.71
74905;BME280;63465;50.862;6.220;2023-05-02T12:38:15;100887.13;;;13.23;74.95
74905;BME280;63465;50.862;6.220;2023-05-02T12:40:51;100894.22;;;13.24;71.32
74905;BME280;63465;50.862;6.220;2023-05-02T12:43:18;100891.69;;;13.43;71.16
74905;BME280;63465;50.862;6.220;2023-05-02T12:45:43;100887.25;;;13.19;73.54
74905;BME280;63465;50.862;6.220;2023-05-02T12:48:26;100890.50;;;13.28;71.02
74905;BME280;63465;50.862;6.220;2023-05-02T12:50:53;100888.75;;;13.49;70.02
74905;BME280;63465;50.862;6.220;2023-05-02T12:53:40;100883.78;;;13.82;68.84
74905;BME280;63465;50.862;6.220;2023-05-02T12:56:06;100886.78;;;13.54;69.54
74905;BME280;63465;50.862;6.220;2023-05-02T12:58:46;100889.66;;;13.90;68.61
74905;BME280;63465;50.862;6.220;2023-05-02T13:01:15;100892.59;;;14.24;69.39
74905;BME280;63465;50.862;6.220;2023-05-02T13:03:41;100893.03;;;13.53;67.99
74905;BME280;63465;50.862;6.220;2023-05-02T13:06:07;100901.38;;;14.07;66.03
74905;BME280;63465;50.862;6.220;2023-05-02T13:08:33;100901.66;;;14.01;67.63
74905;BME280;63465;50.862;6.220;2023-05-02T13:10:59;100902.97;;;14.51;68.51
74905;BME280;63465;50.862;6.220;2023-05-02T13:13:25;100899.13;;;13.77;66.80
74905;BME280;63465;50.862;6.220;2023-05-02T13:15:50;100896.19;;;13.83;67.83